Main page
METAR-TAF:

METAR-TAF

Airports :

Hamad International Airport

Doha, Qatar

latitude: 25-16-23N, longitude: 51-36-29E, elevation: 4 m

Current weather observation

The report was made 20 minutes ago, at 05:00 UTC
Wind 7 kt from the North/Northwest
Temperature 29°C
Humidity 48%
Pressure 1015 hPa
Visibility 10 km or more
no clouds below 1500 m and no cumulonimbus

METAR: OTHH 230500Z AUTO 33007KT CAVOK 29/17 Q1015 NOSIG

Time: 08:20 (05:20 UTC)

Forecast

The report was made 6 hours and 19 minutes ago, at 23:01 UTC
Forecast valid from 23 at 00 UTC to 24 at 06 UTC
Wind 10 kt from the North/Northwest
Visibility 10 km or more
no clouds below 1500 m and no cumulonimbus
Becoming
from 23 at 07 UTC to 23 at 09 UTC
Wind 14 kt from the North/Northeast
Becoming
from 23 at 14 UTC to 23 at 16 UTC
Wind 8 kt from the North/Northwest
Temporary
from 24 at 00 UTC to 24 at 05 UTC
Wind 4 kt from the West

TAF: OTHH 222301Z 2300/2406 33010KT CAVOK BECMG 2307/2309 03014KT BECMG 2314/2316 33008KT TEMPO 2400/2405 27004KT

Weather observations and forecasts of more than 4000 airports (METAR and TAF reports).

The available stations are represented by yellow and red dots on the map.

Hover mouse over dot to see the name of the station.

Then click to see weather observations and forecasts.

To change the map : click on the green buttons with a black cross to zoom in, on the green button with a dash to zoom out, or on the green arrows for adjacent maps.


METAR-TAF: